Elisabeth — LHEA — position and weather

sailwx.info

Track history (hours):
 
Tides and Currents Weather Stations Pressure Air Temp Water Temp Dewpoint Dewpoint Depression Visibility Wind Speed Wind Dir Waves Ship Positions

Elisabeth

Last reported at 2016-Apr-24 22:29 UTC. Time now 2016-Apr-29 06:00 UTC.
Position N 66°30' E 011°29'.

Length 61 m; draft 7 m.

Type: Ship. MMSI: 259166000.

Date/timePositionNaut miles runAvg speedWind from/ knotsBaromVisibWave heightAir tempDewpointWater temp
2016-Apr-24 22:29N 66°30' E 011°29'1111.4
2016-Apr-24 21:33N 66°24' E 011°50'1110.7
2016-Apr-24 20:33N 66°18' E 012°12'1110.8
2016-Apr-24 19:33N 66°14' E 012°38'  
2016-Apr-21 18:26N 67°07' E 013°40'910.6
2016-Apr-21 17:33N 67°12' E 014°01'10 9.9
2016-Apr-21 16:33N 67°17' E 014°23'1 0.5
2016-Apr-21 15:33N 67°18' E 014°24'0 0.0
2016-Apr-21 14:33N 67°18' E 014°24'0 0.0
2016-Apr-21 13:33N 67°18' E 014°24'0 0.0
2016-Apr-21 12:33N 67°18' E 014°24'6 6.1
2016-Apr-21 11:33N 67°24' E 014°26'9 9.2
2016-Apr-21 10:33N 67°31' E 014°11'1 0.5
2016-Apr-21 09:33N 67°31' E 014°10'  
Track history (hours):
 
Tides and Currents Weather Stations Pressure Air Temp Water Temp Dewpoint Dewpoint Depression Visibility Wind Speed Wind Dir Waves Ship Positions

Elisabeth

Last reported at 2016-Apr-24 22:29 UTC. Time now 2016-Apr-29 06:00 UTC.
Position N 66°30' E 011°29'.

Length 61 m; draft 7 m.

Type: Ship. MMSI: 259166000.

Date/timePositionNaut miles runAvg speedWind from/ knotsBaromVisibWave heightAir tempDewpointWater temp
2016-Apr-24 22:29N 66°30' E 011°29'1111.4
2016-Apr-24 21:33N 66°24' E 011°50'1110.7
2016-Apr-24 20:33N 66°18' E 012°12'1110.8
2016-Apr-24 19:33N 66°14' E 012°38'  
2016-Apr-21 18:26N 67°07' E 013°40'910.6
2016-Apr-21 17:33N 67°12' E 014°01'10 9.9
2016-Apr-21 16:33N 67°17' E 014°23'1 0.5
2016-Apr-21 15:33N 67°18' E 014°24'0 0.0
2016-Apr-21 14:33N 67°18' E 014°24'0 0.0
2016-Apr-21 13:33N 67°18' E 014°24'0 0.0
2016-Apr-21 12:33N 67°18' E 014°24'6 6.1
2016-Apr-21 11:33N 67°24' E 014°26'9 9.2
2016-Apr-21 10:33N 67°31' E 014°11'1 0.5
2016-Apr-21 09:33N 67°31' E 014°10'  

Dump ship's entire track history